sensor_id;sensor_type;location;lat;lon;timestamp;P1;durP1;ratioP1;P2;durP2;ratioP2
4078;SDS011;2054;47.858;11.156;2022-09-09T02:31:02;2.03;;;1.10;;
4078;SDS011;2054;47.858;11.156;2022-09-09T02:33:30;2.20;;;1.20;;
4078;SDS011;2054;47.858;11.156;2022-09-09T02:36:00;2.05;;;1.10;;
4078;SDS011;2054;47.858;11.156;2022-09-09T02:38:29;2.15;;;1.23;;
4078;SDS011;2054;47.858;11.156;2022-09-09T02:40:59;2.15;;;1.25;;
4078;SDS011;2054;47.858;11.156;2022-09-09T02:43:30;13.50;;;1.55;;
4078;SDS011;2054;47.858;11.156;2022-09-09T02:45:59;3.17;;;1.35;;
4078;SDS011;2054;47.858;11.156;2022-09-09T02:48:30;1.25;;;1.10;;
4078;SDS011;2054;47.858;11.156;2022-09-09T02:51:00;4.72;;;1.20;;
4078;SDS011;2054;47.858;11.156;2022-09-09T02:53:32;2.00;;;1.30;;
4078;SDS011;2054;47.858;11.156;2022-09-09T02:56:02;6.43;;;1.30;;
4078;SDS011;2054;47.858;11.156;2022-09-09T02:58:31;2.80;;;1.40;;
4078;SDS011;2054;47.858;11.156;2022-09-09T03:00:58;1.52;;;1.42;;
4078;SDS011;2054;47.858;11.156;2022-09-09T03:03:29;1.33;;;1.20;;
4078;SDS011;2054;47.858;11.156;2022-09-09T03:05:56;2.80;;;1.38;;
4078;SDS011;2054;47.858;11.156;2022-09-09T03:08:24;1.67;;;1.02;;
4078;SDS011;2054;47.858;11.156;2022-09-09T03:10:53;3.33;;;1.40;;
4078;SDS011;2054;47.858;11.156;2022-09-09T03:13:20;1.23;;;1.02;;
4078;SDS011;2054;47.858;11.156;2022-09-09T03:15:48;3.00;;;1.30;;
4078;SDS011;2054;47.858;11.156;2022-09-09T03:18:16;1.42;;;1.23;;
4078;SDS011;2054;47.858;11.156;2022-09-09T03:20:45;1.63;;;1.42;;
4078;SDS011;2054;47.858;11.156;2022-09-09T03:23:13;4.18;;;1.25;;
4078;SDS011;2054;47.858;11.156;2022-09-09T03:25:45;3.20;;;1.35;;
4078;SDS011;2054;47.858;11.156;2022-09-09T03:28:13;2.15;;;1.30;;
4078;SDS011;2054;47.858;11.156;2022-09-09T03:30:40;2.92;;;1.60;;
4078;SDS011;2054;47.858;11.156;2022-09-09T03:33:07;10.93;;;7.13;;
4078;SDS011;2054;47.858;11.156;2022-09-09T03:35:34;5.50;;;3.40;;
4078;SDS011;2054;47.858;11.156;2022-09-09T03:38:03;3.15;;;1.58;;
4078;SDS011;2054;47.858;11.156;2022-09-09T03:40:30;1.65;;;1.35;;
4078;SDS011;2054;47.858;11.156;2022-09-09T03:42:57;1.90;;;1.40;;
4078;SDS011;2054;47.858;11.156;2022-09-09T03:45:25;7.80;;;1.83;;
4078;SDS011;2054;47.858;11.156;2022-09-09T03:47:52;3.45;;;1.58;;
4078;SDS011;2054;47.858;11.156;2022-09-09T03:50:19;6.90;;;2.67;;
4078;SDS011;2054;47.858;11.156;2022-09-09T03:52:46;1.63;;;1.52;;
4078;SDS011;2054;47.858;11.156;2022-09-09T03:55:15;2.17;;;1.70;;
4078;SDS011;2054;47.858;11.156;2022-09-09T03:57:42;2.22;;;1.70;;
4078;SDS011;2054;47.858;11.156;2022-09-09T04:00:10;2.17;;;1.67;;
4078;SDS011;2054;47.858;11.156;2022-09-09T04:02:37;4.72;;;1.90;;
4078;SDS011;2054;47.858;11.156;2022-09-09T04:05:05;3.15;;;1.60;;
4078;SDS011;2054;47.858;11.156;2022-09-09T04:07:32;2.50;;;1.80;;
4078;SDS011;2054;47.858;11.156;2022-09-09T04:10:00;3.10;;;1.67;;
4078;SDS011;2054;47.858;11.156;2022-09-09T04:12:28;3.65;;;1.75;;
4078;SDS011;2054;47.858;11.156;2022-09-09T04:14:55;2.80;;;1.75;;
4078;SDS011;2054;47.858;11.156;2022-09-09T04:17:22;2.85;;;1.90;;
4078;SDS011;2054;47.858;11.156;2022-09-09T04:19:52;2.00;;;1.70;;
4078;SDS011;2054;47.858;11.156;2022-09-09T04:22:19;4.03;;;2.00;;
4078;SDS011;2054;47.858;11.156;2022-09-09T04:24:47;2.83;;;1.92;;
4078;SDS011;2054;47.858;11.156;2022-09-09T04:27:14;3.17;;;2.70;;
4078;SDS011;2054;47.858;11.156;2022-09-09T04:29:43;2.33;;;1.98;;
4078;SDS011;2054;47.858;11.156;2022-09-09T04:32:10;4.55;;;2.15;;
4078;SDS011;2054;47.858;11.156;2022-09-09T04:34:37;3.80;;;2.08;;
4078;SDS011;2054;47.858;11.156;2022-09-09T04:37:06;3.28;;;2.08;;
4078;SDS011;2054;47.858;11.156;2022-09-09T04:39:33;2.10;;;1.90;;
4078;SDS011;2054;47.858;11.156;2022-09-09T04:42:00;2.03;;;1.70;;
4078;SDS011;2054;47.858;11.156;2022-09-09T04:44:28;2.97;;;2.08;;
4078;SDS011;2054;47.858;11.156;2022-09-09T04:46:57;2.58;;;1.98;;
4078;SDS011;2054;47.858;11.156;2022-09-09T04:49:24;4.15;;;2.33;;
4078;SDS011;2054;47.858;11.156;2022-09-09T04:51:51;2.88;;;2.15;;
4078;SDS011;2054;47.858;11.156;2022-09-09T04:54:18;4.60;;;2.25;;
4078;SDS011;2054;47.858;11.156;2022-09-09T04:56:46;3.47;;;2.22;;
4078;SDS011;2054;47.858;11.156;2022-09-09T04:59:13;4.72;;;2.25;;
4078;SDS011;2054;47.858;11.156;2022-09-09T05:01:40;4.57;;;1.90;;
4078;SDS011;2054;47.858;11.156;2022-09-09T05:04:09;4.30;;;2.40;;
4078;SDS011;2054;47.858;11.156;2022-09-09T05:06:36;3.45;;;2.03;;
4078;SDS011;2054;47.858;11.156;2022-09-09T05:09:03;7.32;;;2.30;;
4078;SDS011;2054;47.858;11.156;2022-09-09T05:11:31;3.42;;;2.00;;
4078;SDS011;2054;47.858;11.156;2022-09-09T05:14:01;3.55;;;2.05;;
4078;SDS011;2054;47.858;11.156;2022-09-09T05:16:29;1.92;;;1.73;;
4078;SDS011;2054;47.858;11.156;2022-09-09T05:18:56;3.08;;;1.60;;
4078;SDS011;2054;47.858;11.156;2022-09-09T05:21:25;1.55;;;1.40;;
4078;SDS011;2054;47.858;11.156;2022-09-09T05:23:53;6.47;;;1.92;;
4078;SDS011;2054;47.858;11.156;2022-09-09T05:26:21;3.15;;;2.20;;
4078;SDS011;2054;47.858;11.156;2022-09-09T05:28:49;4.07;;;3.10;;
4078;SDS011;2054;47.858;11.156;2022-09-09T05:31:16;4.75;;;2.00;;
4078;SDS011;2054;47.858;11.156;2022-09-09T05:33:45;3.05;;;1.90;;
4078;SDS011;2054;47.858;11.156;2022-09-09T05:36:13;2.22;;;1.70;;
4078;SDS011;2054;47.858;11.156;2022-09-09T05:38:43;2.08;;;1.90;;
4078;SDS011;2054;47.858;11.156;2022-09-09T05:41:10;5.38;;;2.20;;
4078;SDS011;2054;47.858;11.156;2022-09-09T05:43:40;5.28;;;1.80;;
4078;SDS011;2054;47.858;11.156;2022-09-09T05:46:09;2.42;;;1.80;;
4078;SDS011;2054;47.858;11.156;2022-09-09T05:48:38;2.38;;;2.17;;
4078;SDS011;2054;47.858;11.156;2022-09-09T05:51:06;5.68;;;2.17;;
4078;SDS011;2054;47.858;11.156;2022-09-09T05:53:33;4.15;;;2.30;;
4078;SDS011;2054;47.858;11.156;2022-09-09T05:56:03;4.68;;;2.38;;
4078;SDS011;2054;47.858;11.156;2022-09-09T05:58:30;2.65;;;2.10;;
4078;SDS011;2054;47.858;11.156;2022-09-09T06:01:02;3.15;;;1.80;;
4078;SDS011;2054;47.858;11.156;2022-09-09T06:03:29;3.75;;;2.20;;
4078;SDS011;2054;47.858;11.156;2022-09-09T06:05:57;2.58;;;1.90;;
4078;SDS011;2054;47.858;11.156;2022-09-09T06:08:24;5.60;;;1.90;;
4078;SDS011;2054;47.858;11.156;2022-09-09T06:10:51;1.95;;;1.75;;
4078;SDS011;2054;47.858;11.156;2022-09-09T06:13:20;2.70;;;1.90;;
4078;SDS011;2054;47.858;11.156;2022-09-09T06:15:51;4.07;;;1.85;;
4078;SDS011;2054;47.858;11.156;2022-09-09T06:18:18;5.57;;;1.90;;
4078;SDS011;2054;47.858;11.156;2022-09-09T06:20:53;3.65;;;2.05;;
4078;SDS011;2054;47.858;11.156;2022-09-09T06:23:20;2.90;;;2.15;;
4078;SDS011;2054;47.858;11.156;2022-09-09T06:25:47;2.65;;;2.00;;
4078;SDS011;2054;47.858;11.156;2022-09-09T06:28:16;2.05;;;1.73;;
4078;SDS011;2054;47.858;11.156;2022-09-09T06:30:45;3.00;;;1.75;;
4078;SDS011;2054;47.858;11.156;2022-09-09T06:33:12;3.42;;;1.90;;
4078;SDS011;2054;47.858;11.156;2022-09-09T06:35:40;1.90;;;1.80;;
4078;SDS011;2054;47.858;11.156;2022-09-09T06:38:07;5.13;;;1.70;;
4078;SDS011;2054;47.858;11.156;2022-09-09T06:40:34;3.08;;;2.20;;
4078;SDS011;2054;47.858;11.156;2022-09-09T06:43:01;2.03;;;1.83;;
4078;SDS011;2054;47.858;11.156;2022-09-09T06:45:29;3.17;;;1.50;;
4078;SDS011;2054;47.858;11.156;2022-09-09T06:47:57;2.30;;;1.70;;
4078;SDS011;2054;47.858;11.156;2022-09-09T06:50:25;2.20;;;1.55;;
4078;SDS011;2054;47.858;11.156;2022-09-09T06:52:52;2.63;;;1.52;;
4078;SDS011;2054;47.858;11.156;2022-09-09T06:55:19;3.67;;;2.00;;
4078;SDS011;2054;47.858;11.156;2022-09-09T06:57:46;1.70;;;1.60;;
4078;SDS011;2054;47.858;11.156;2022-09-09T07:00:14;2.08;;;1.85;;
4078;SDS011;2054;47.858;11.156;2022-09-09T07:02:42;1.95;;;1.83;;
4078;SDS011;2054;47.858;11.156;2022-09-09T07:05:11;3.83;;;2.15;;
4078;SDS011;2054;47.858;11.156;2022-09-09T07:07:40;3.03;;;1.92;;
4078;SDS011;2054;47.858;11.156;2022-09-09T07:10:08;2.20;;;2.00;;
4078;SDS011;2054;47.858;11.156;2022-09-09T07:12:35;3.13;;;2.05;;
4078;SDS011;2054;47.858;11.156;2022-09-09T07:15:03;3.22;;;2.08;;
4078;SDS011;2054;47.858;11.156;2022-09-09T07:17:31;2.67;;;1.92;;
4078;SDS011;2054;47.858;11.156;2022-09-09T07:19:58;3.83;;;2.25;;
4078;SDS011;2054;47.858;11.156;2022-09-09T07:22:26;8.18;;;2.50;;
4078;SDS011;2054;47.858;11.156;2022-09-09T07:24:54;4.28;;;2.33;;
4078;SDS011;2054;47.858;11.156;2022-09-09T07:27:21;2.65;;;1.92;;
4078;SDS011;2054;47.858;11.156;2022-09-09T07:29:48;3.08;;;1.80;;
4078;SDS011;2054;47.858;11.156;2022-09-09T07:32:15;2.22;;;1.60;;
4078;SDS011;2054;47.858;11.156;2022-09-09T07:34:45;3.08;;;1.40;;
4078;SDS011;2054;47.858;11.156;2022-09-09T07:37:13;4.13;;;1.40;;
4078;SDS011;2054;47.858;11.156;2022-09-09T07:39:41;2.95;;;1.20;;
4078;SDS011;2054;47.858;11.156;2022-09-09T07:42:09;2.88;;;1.27;;
4078;SDS011;2054;47.858;11.156;2022-09-09T07:44:39;1.50;;;1.40;;
4078;SDS011;2054;47.858;11.156;2022-09-09T07:47:06;1.92;;;1.38;;
4078;SDS011;2054;47.858;11.156;2022-09-09T07:49:33;1.45;;;1.00;;
4078;SDS011;2054;47.858;11.156;2022-09-09T07:52:01;2.03;;;1.13;;
4078;SDS011;2054;47.858;11.156;2022-09-09T07:54:28;4.13;;;1.25;;
4078;SDS011;2054;47.858;11.156;2022-09-09T07:56:58;2.85;;;1.63;;
4078;SDS011;2054;47.858;11.156;2022-09-09T07:59:25;2.65;;;1.40;;
4078;SDS011;2054;47.858;11.156;2022-09-09T08:01:55;2.08;;;1.30;;
4078;SDS011;2054;47.858;11.156;2022-09-09T08:04:23;1.63;;;1.45;;
4078;SDS011;2054;47.858;11.156;2022-09-09T08:06:51;11.02;;;1.40;;
4078;SDS011;2054;47.858;11.156;2022-09-09T08:09:19;3.58;;;2.67;;
4078;SDS011;2054;47.858;11.156;2022-09-09T08:11:47;1.75;;;1.00;;
4078;SDS011;2054;47.858;11.156;2022-09-09T08:14:15;3.75;;;1.30;;
4078;SDS011;2054;47.858;11.156;2022-09-09T08:16:44;4.28;;;1.20;;
4078;SDS011;2054;47.858;11.156;2022-09-09T08:19:11;2.30;;;1.30;;
4078;SDS011;2054;47.858;11.156;2022-09-09T08:21:40;3.13;;;1.30;;
4078;SDS011;2054;47.858;11.156;2022-09-09T08:24:08;2.33;;;1.10;;
4078;SDS011;2054;47.858;11.156;2022-09-09T08:26:36;1.92;;;1.13;;
4078;SDS011;2054;47.858;11.156;2022-09-09T08:29:05;1.60;;;1.10;;
4078;SDS011;2054;47.858;11.156;2022-09-09T08:31:34;2.20;;;1.13;;
4078;SDS011;2054;47.858;11.156;2022-09-09T08:34:02;3.90;;;1.15;;
4078;SDS011;2054;47.858;11.156;2022-09-09T08:36:31;2.75;;;1.20;;
4078;SDS011;2054;47.858;11.156;2022-09-09T08:38:59;3.08;;;1.20;;
4078;SDS011;2054;47.858;11.156;2022-09-09T08:41:31;1.25;;;1.15;;
4078;SDS011;2054;47.858;11.156;2022-09-09T08:44:03;4.03;;;1.10;;
4078;SDS011;2054;47.858;11.156;2022-09-09T08:46:34;1.95;;;1.00;;
4078;SDS011;2054;47.858;11.156;2022-09-09T08:49:06;1.05;;;0.95;;
4078;SDS011;2054;47.858;11.156;2022-09-09T08:51:38;1.58;;;1.08;;
4078;SDS011;2054;47.858;11.156;2022-09-09T08:54:05;2.72;;;1.27;;
4078;SDS011;2054;47.858;11.156;2022-09-09T08:56:32;3.63;;;1.20;;
4078;SDS011;2054;47.858;11.156;2022-09-09T08:59:00;3.17;;;1.10;;
4078;SDS011;2054;47.858;11.156;2022-09-09T09:04:26;1.98;;;1.05;;
4078;SDS011;2054;47.858;11.156;2022-09-09T09:06:59;1.85;;;1.08;;
4078;SDS011;2054;47.858;11.156;2022-09-09T09:09:31;1.15;;;0.90;;
4078;SDS011;2054;47.858;11.156;2022-09-09T09:12:00;1.83;;;1.08;;
4078;SDS011;2054;47.858;11.156;2022-09-09T09:14:28;2.17;;;1.13;;
4078;SDS011;2054;47.858;11.156;2022-09-09T09:16:59;1.65;;;0.90;;
4078;SDS011;2054;47.858;11.156;2022-09-09T09:19:29;1.67;;;0.98;;
4078;SDS011;2054;47.858;11.156;2022-09-09T09:21:59;1.40;;;0.80;;
4078;SDS011;2054;47.858;11.156;2022-09-09T09:24:30;1.40;;;0.80;;
4078;SDS011;2054;47.858;11.156;2022-09-09T09:27:00;4.13;;;0.90;;
4078;SDS011;2054;47.858;11.156;2022-09-09T09:29:34;1.88;;;0.90;;
4078;SDS011;2054;47.858;11.156;2022-09-09T09:32:01;2.15;;;0.82;;
4078;SDS011;2054;47.858;11.156;2022-09-09T09:34:31;1.55;;;0.95;;
4078;SDS011;2054;47.858;11.156;2022-09-09T09:36:59;2.30;;;0.82;;
4078;SDS011;2054;47.858;11.156;2022-09-09T09:39:28;1.45;;;0.90;;
4078;SDS011;2054;47.858;11.156;2022-09-09T09:41:55;1.67;;;0.90;;
4078;SDS011;2054;47.858;11.156;2022-09-09T09:44:26;0.75;;;0.73;;
4078;SDS011;2054;47.858;11.156;2022-09-09T09:47:04;2.10;;;0.70;;
4078;SDS011;2054;47.858;11.156;2022-09-09T09:49:34;0.98;;;0.70;;
4078;SDS011;2054;47.858;11.156;2022-09-09T09:52:01;1.35;;;0.80;;
4078;SDS011;2054;47.858;11.156;2022-09-09T09:54:29;2.60;;;0.80;;
4078;SDS011;2054;47.858;11.156;2022-09-09T09:57:06;1.15;;;0.70;;
4078;SDS011;2054;47.858;11.156;2022-09-09T09:59:35;0.85;;;0.70;;
4078;SDS011;2054;47.858;11.156;2022-09-09T10:02:13;2.83;;;0.80;;
4078;SDS011;2054;47.858;11.156;2022-09-09T10:04:43;1.52;;;0.70;;
4078;SDS011;2054;47.858;11.156;2022-09-09T10:07:11;2.60;;;0.77;;
4078;SDS011;2054;47.858;11.156;2022-09-09T10:09:38;0.82;;;0.80;;
4078;SDS011;2054;47.858;11.156;2022-09-09T10:12:08;1.42;;;0.82;;
4078;SDS011;2054;47.858;11.156;2022-09-09T10:14:43;2.22;;;0.60;;
4078;SDS011;2054;47.858;11.156;2022-09-09T10:17:15;2.75;;;0.93;;
4078;SDS011;2054;47.858;11.156;2022-09-09T10:19:49;1.30;;;1.10;;
4078;SDS011;2054;47.858;11.156;2022-09-09T10:22:24;1.15;;;1.05;;
4078;SDS011;2054;47.858;11.156;2022-09-09T10:25:02;1.10;;;0.80;;
4078;SDS011;2054;47.858;11.156;2022-09-09T10:27:34;1.98;;;0.90;;
4078;SDS011;2054;47.858;11.156;2022-09-09T10:30:12;1.92;;;0.80;;
4078;SDS011;2054;47.858;11.156;2022-09-09T10:32:45;2.53;;;1.00;;
4078;SDS011;2054;47.858;11.156;2022-09-09T10:35:17;3.20;;;0.90;;
4078;SDS011;2054;47.858;11.156;2022-09-09T10:37:57;1.73;;;0.90;;
4078;SDS011;2054;47.858;11.156;2022-09-09T10:40:31;1.70;;;0.75;;
4078;SDS011;2054;47.858;11.156;2022-09-09T10:43:01;1.15;;;0.70;;
4078;SDS011;2054;47.858;11.156;2022-09-09T10:45:32;1.40;;;0.80;;
4078;SDS011;2054;47.858;11.156;2022-09-09T10:48:05;1.90;;;0.80;;
4078;SDS011;2054;47.858;11.156;2022-09-09T10:50:45;1.08;;;0.88;;
4078;SDS011;2054;47.858;11.156;2022-09-09T10:53:19;1.52;;;0.90;;
4078;SDS011;2054;47.858;11.156;2022-09-09T10:55:51;2.20;;;0.85;;
4078;SDS011;2054;47.858;11.156;2022-09-09T10:58:20;0.98;;;0.80;;
4078;SDS011;2054;47.858;11.156;2022-09-09T11:00:49;2.13;;;0.90;;
4078;SDS011;2054;47.858;11.156;2022-09-09T11:03:19;1.25;;;0.90;;
4078;SDS011;2054;47.858;11.156;2022-09-09T11:05:49;2.53;;;1.05;;
4078;SDS011;2054;47.858;11.156;2022-09-09T11:08:18;3.15;;;0.93;;
4078;SDS011;2054;47.858;11.156;2022-09-09T11:10:46;2.35;;;1.30;;
4078;SDS011;2054;47.858;11.156;2022-09-09T11:13:18;1.33;;;0.90;;
4078;SDS011;2054;47.858;11.156;2022-09-09T11:15:49;2.65;;;1.00;;
4078;SDS011;2054;47.858;11.156;2022-09-09T11:18:18;2.88;;;1.23;;
4078;SDS011;2054;47.858;11.156;2022-09-09T11:20:46;1.35;;;0.88;;
4078;SDS011;2054;47.858;11.156;2022-09-09T11:23:17;2.35;;;1.42;;
4078;SDS011;2054;47.858;11.156;2022-09-09T11:25:47;1.20;;;0.80;;
4078;SDS011;2054;47.858;11.156;2022-09-09T11:31:06;0.80;;;0.80;;
4078;SDS011;2054;47.858;11.156;2022-09-09T11:36:28;0.98;;;0.75;;
4078;SDS011;2054;47.858;11.156;2022-09-09T11:39:02;1.63;;;1.00;;
4078;SDS011;2054;47.858;11.156;2022-09-09T11:41:34;1.10;;;0.90;;
4078;SDS011;2054;47.858;11.156;2022-09-09T11:44:09;4.53;;;1.30;;
4078;SDS011;2054;47.858;11.156;2022-09-09T11:46:37;4.00;;;1.02;;
4078;SDS011;2054;47.858;11.156;2022-09-09T11:49:05;1.02;;;0.80;;
4078;SDS011;2054;47.858;11.156;2022-09-09T11:51:33;0.90;;;0.75;;
4078;SDS011;2054;47.858;11.156;2022-09-09T11:54:03;1.27;;;0.65;;
4078;SDS011;2054;47.858;11.156;2022-09-09T11:56:49;1.42;;;0.80;;
4078;SDS011;2054;47.858;11.156;2022-09-09T11:59:19;1.33;;;0.98;;
4078;SDS011;2054;47.858;11.156;2022-09-09T12:01:48;2.50;;;0.90;;
4078;SDS011;2054;47.858;11.156;2022-09-09T12:07:00;0.80;;;0.80;;
4078;SDS011;2054;47.858;11.156;2022-09-09T12:09:42;1.27;;;0.77;;
4078;SDS011;2054;47.858;11.156;2022-09-09T12:14:56;1.95;;;0.93;;
4078;SDS011;2054;47.858;11.156;2022-09-09T12:17:25;1.38;;;1.00;;
4078;SDS011;2054;47.858;11.156;2022-09-09T12:19:59;2.95;;;0.90;;
4078;SDS011;2054;47.858;11.156;2022-09-09T12:22:31;3.03;;;0.90;;
4078;SDS011;2054;47.858;11.156;2022-09-09T12:25:03;2.67;;;0.93;;
4078;SDS011;2054;47.858;11.156;2022-09-09T12:27:34;3.08;;;0.80;;
4078;SDS011;2054;47.858;11.156;2022-09-09T12:30:03;1.92;;;0.90;;
4078;SDS011;2054;47.858;11.156;2022-09-09T12:32:31;1.48;;;0.90;;
4078;SDS011;2054;47.858;11.156;2022-09-09T12:34:59;2.03;;;1.08;;
4078;SDS011;2054;47.858;11.156;2022-09-09T12:37:28;2.38;;;1.15;;
4078;SDS011;2054;47.858;11.156;2022-09-09T12:39:57;1.38;;;0.80;;
4078;SDS011;2054;47.858;11.156;2022-09-09T12:42:26;1.95;;;0.98;;
4078;SDS011;2054;47.858;11.156;2022-09-09T12:44:54;2.70;;;0.73;;
4078;SDS011;2054;47.858;11.156;2022-09-09T12:47:23;1.42;;;0.77;;
4078;SDS011;2054;47.858;11.156;2022-09-09T12:49:51;1.95;;;0.73;;
4078;SDS011;2054;47.858;11.156;2022-09-09T12:52:23;2.45;;;0.60;;
4078;SDS011;2054;47.858;11.156;2022-09-09T12:54:51;1.20;;;1.10;;
4078;SDS011;2054;47.858;11.156;2022-09-09T12:57:19;2.05;;;0.70;;
4078;SDS011;2054;47.858;11.156;2022-09-09T12:59:51;1.30;;;0.68;;
4078;SDS011;2054;47.858;11.156;2022-09-09T13:02:20;2.42;;;0.80;;
4078;SDS011;2054;47.858;11.156;2022-09-09T13:04:48;2.35;;;0.85;;
4078;SDS011;2054;47.858;11.156;2022-09-09T13:07:15;1.58;;;0.73;;
4078;SDS011;2054;47.858;11.156;2022-09-09T13:09:43;1.70;;;0.70;;
4078;SDS011;2054;47.858;11.156;2022-09-09T13:12:12;2.67;;;0.88;;
4078;SDS011;2054;47.858;11.156;2022-09-09T13:14:42;1.13;;;0.75;;
4078;SDS011;2054;47.858;11.156;2022-09-09T13:17:17;1.02;;;0.75;;
4078;SDS011;2054;47.858;11.156;2022-09-09T13:19:45;1.45;;;0.70;;
4078;SDS011;2054;47.858;11.156;2022-09-09T13:22:12;2.22;;;0.95;;
4078;SDS011;2054;47.858;11.156;2022-09-09T13:24:39;2.00;;;0.80;;
4078;SDS011;2054;47.858;11.156;2022-09-09T13:27:21;1.83;;;0.90;;
4078;SDS011;2054;47.858;11.156;2022-09-09T13:29:51;1.65;;;1.00;;
4078;SDS011;2054;47.858;11.156;2022-09-09T13:32:22;0.82;;;0.82;;
4078;SDS011;2054;47.858;11.156;2022-09-09T13:34:52;1.45;;;0.80;;
4078;SDS011;2054;47.858;11.156;2022-09-09T13:37:21;1.17;;;1.02;;
4078;SDS011;2054;47.858;11.156;2022-09-09T13:39:51;1.77;;;0.90;;
4078;SDS011;2054;47.858;11.156;2022-09-09T13:42:21;1.58;;;0.95;;
4078;SDS011;2054;47.858;11.156;2022-09-09T13:44:51;1.25;;;0.85;;
4078;SDS011;2054;47.858;11.156;2022-09-09T13:47:19;2.20;;;0.98;;
4078;SDS011;2054;47.858;11.156;2022-09-09T13:49:48;2.60;;;1.13;;
4078;SDS011;2054;47.858;11.156;2022-09-09T13:52:15;1.65;;;0.80;;
4078;SDS011;2054;47.858;11.156;2022-09-09T13:54:46;1.23;;;1.13;;
4078;SDS011;2054;47.858;11.156;2022-09-09T13:57:15;1.05;;;0.73;;
4078;SDS011;2054;47.858;11.156;2022-09-09T13:59:43;1.92;;;1.00;;
4078;SDS011;2054;47.858;11.156;2022-09-09T14:02:10;2.08;;;0.98;;
4078;SDS011;2054;47.858;11.156;2022-09-09T14:04:37;1.80;;;0.90;;
4078;SDS011;2054;47.858;11.156;2022-09-09T14:07:09;1.85;;;0.90;;
4078;SDS011;2054;47.858;11.156;2022-09-09T14:09:38;1.95;;;1.30;;
4078;SDS011;2054;47.858;11.156;2022-09-09T14:12:05;3.20;;;1.30;;
4078;SDS011;2054;47.858;11.156;2022-09-09T14:14:33;2.33;;;1.25;;
4078;SDS011;2054;47.858;11.156;2022-09-09T14:17:00;1.63;;;1.00;;
4078;SDS011;2054;47.858;11.156;2022-09-09T14:19:28;1.20;;;1.08;;
4078;SDS011;2054;47.858;11.156;2022-09-09T14:21:55;1.40;;;1.02;;
4078;SDS011;2054;47.858;11.156;2022-09-09T14:24:24;1.15;;;1.00;;
4078;SDS011;2054;47.858;11.156;2022-09-09T14:26:51;2.00;;;1.00;;
4078;SDS011;2054;47.858;11.156;2022-09-09T14:29:19;1.77;;;0.80;;
4078;SDS011;2054;47.858;11.156;2022-09-09T14:31:46;3.10;;;0.90;;
4078;SDS011;2054;47.858;11.156;2022-09-09T14:34:13;2.40;;;1.00;;
4078;SDS011;2054;47.858;11.156;2022-09-09T14:36:40;1.60;;;0.90;;
4078;SDS011;2054;47.858;11.156;2022-09-09T14:39:09;3.33;;;1.00;;
4078;SDS011;2054;47.858;11.156;2022-09-09T14:41:38;1.70;;;1.00;;
4078;SDS011;2054;47.858;11.156;2022-09-09T14:44:05;1.55;;;0.80;;
4078;SDS011;2054;47.858;11.156;2022-09-09T14:46:33;1.33;;;0.93;;
4078;SDS011;2054;47.858;11.156;2022-09-09T14:49:00;1.50;;;0.85;;
4078;SDS011;2054;47.858;11.156;2022-09-09T14:51:27;2.92;;;0.95;;
4078;SDS011;2054;47.858;11.156;2022-09-09T14:53:55;1.88;;;1.00;;
4078;SDS011;2054;47.858;11.156;2022-09-09T14:56:23;0.88;;;0.70;;
4078;SDS011;2054;47.858;11.156;2022-09-09T14:58:53;2.28;;;0.88;;
4078;SDS011;2054;47.858;11.156;2022-09-09T15:01:21;2.58;;;1.00;;
4078;SDS011;2054;47.858;11.156;2022-09-09T15:03:49;0.93;;;0.80;;
4078;SDS011;2054;47.858;11.156;2022-09-09T15:06:17;0.90;;;0.60;;
4078;SDS011;2054;47.858;11.156;2022-09-09T15:08:44;1.67;;;0.77;;
4078;SDS011;2054;47.858;11.156;2022-09-09T15:11:13;0.68;;;0.60;;
4078;SDS011;2054;47.858;11.156;2022-09-09T15:13:41;1.77;;;1.00;;
4078;SDS011;2054;47.858;11.156;2022-09-09T15:16:10;1.83;;;1.10;;
4078;SDS011;2054;47.858;11.156;2022-09-09T15:18:39;2.30;;;1.92;;
4078;SDS011;2054;47.858;11.156;2022-09-09T15:21:08;2.17;;;1.42;;
4078;SDS011;2054;47.858;11.156;2022-09-09T15:23:35;2.15;;;0.80;;
4078;SDS011;2054;47.858;11.156;2022-09-09T15:26:03;1.88;;;1.30;;
4078;SDS011;2054;47.858;11.156;2022-09-09T15:28:31;1.83;;;0.75;;
4078;SDS011;2054;47.858;11.156;2022-09-09T15:31:04;0.95;;;0.85;;
4078;SDS011;2054;47.858;11.156;2022-09-09T15:33:33;0.73;;;0.70;;
4078;SDS011;2054;47.858;11.156;2022-09-09T15:36:12;1.50;;;0.77;;
4078;SDS011;2054;47.858;11.156;2022-09-09T15:38:39;1.58;;;0.80;;
4078;SDS011;2054;47.858;11.156;2022-09-09T15:41:06;2.17;;;0.75;;
4078;SDS011;2054;47.858;11.156;2022-09-09T15:43:33;1.30;;;0.77;;
4078;SDS011;2054;47.858;11.156;2022-09-09T15:46:05;2.67;;;0.77;;
4078;SDS011;2054;47.858;11.156;2022-09-09T15:48:36;0.90;;;0.80;;
4078;SDS011;2054;47.858;11.156;2022-09-09T15:51:04;1.05;;;0.60;;
4078;SDS011;2054;47.858;11.156;2022-09-09T15:53:31;1.85;;;0.70;;
4078;SDS011;2054;47.858;11.156;2022-09-09T15:55:59;1.38;;;0.70;;
4078;SDS011;2054;47.858;11.156;2022-09-09T15:58:29;0.65;;;0.65;;
4078;SDS011;2054;47.858;11.156;2022-09-09T16:01:01;0.77;;;0.60;;
4078;SDS011;2054;47.858;11.156;2022-09-09T16:03:29;0.82;;;0.73;;
4078;SDS011;2054;47.858;11.156;2022-09-09T16:05:58;2.53;;;0.80;;
4078;SDS011;2054;47.858;11.156;2022-09-09T16:08:25;1.35;;;0.70;;
4078;SDS011;2054;47.858;11.156;2022-09-09T16:11:03;0.70;;;0.60;;
4078;SDS011;2054;47.858;11.156;2022-09-09T16:13:32;1.33;;;0.80;;
4078;SDS011;2054;47.858;11.156;2022-09-09T16:15:59;0.65;;;0.50;;
4078;SDS011;2054;47.858;11.156;2022-09-09T16:18:32;1.63;;;0.70;;
4078;SDS011;2054;47.858;11.156;2022-09-09T16:21:00;1.52;;;0.70;;
4078;SDS011;2054;47.858;11.156;2022-09-09T16:23:28;2.10;;;0.50;;
4078;SDS011;2054;47.858;11.156;2022-09-09T16:25:55;1.58;;;0.73;;
4078;SDS011;2054;47.858;11.156;2022-09-09T16:28:22;0.63;;;0.50;;
4078;SDS011;2054;47.858;11.156;2022-09-09T16:30:49;0.60;;;0.60;;
4078;SDS011;2054;47.858;11.156;2022-09-09T16:33:17;1.02;;;0.60;;
4078;SDS011;2054;47.858;11.156;2022-09-09T16:35:44;0.93;;;0.60;;
4078;SDS011;2054;47.858;11.156;2022-09-09T16:38:13;0.90;;;0.60;;
4078;SDS011;2054;47.858;11.156;2022-09-09T16:40:41;0.43;;;0.43;;
4078;SDS011;2054;47.858;11.156;2022-09-09T16:43:08;1.15;;;0.65;;
4078;SDS011;2054;47.858;11.156;2022-09-09T16:45:41;0.63;;;0.55;;
4078;SDS011;2054;47.858;11.156;2022-09-09T16:48:08;0.40;;;0.40;;
4078;SDS011;2054;47.858;11.156;2022-09-09T16:50:36;0.52;;;0.52;;
4078;SDS011;2054;47.858;11.156;2022-09-09T16:53:03;0.88;;;0.70;;
4078;SDS011;2054;47.858;11.156;2022-09-09T16:55:38;0.70;;;0.70;;
4078;SDS011;2054;47.858;11.156;2022-09-09T16:58:06;0.63;;;0.50;;
4078;SDS011;2054;47.858;11.156;2022-09-09T17:00:34;1.00;;;0.60;;
4078;SDS011;2054;47.858;11.156;2022-09-09T17:03:01;1.23;;;0.75;;
4078;SDS011;2054;47.858;11.156;2022-09-09T17:05:28;1.25;;;0.80;;
4078;SDS011;2054;47.858;11.156;2022-09-09T17:07:57;1.65;;;0.88;;
4078;SDS011;2054;47.858;11.156;2022-09-09T17:10:25;0.60;;;0.60;;
4078;SDS011;2054;47.858;11.156;2022-09-09T17:12:53;2.53;;;0.70;;
4078;SDS011;2054;47.858;11.156;2022-09-09T17:15:21;1.15;;;0.63;;
4078;SDS011;2054;47.858;11.156;2022-09-09T17:17:49;1.40;;;0.70;;
4078;SDS011;2054;47.858;11.156;2022-09-09T17:20:18;1.17;;;0.73;;
4078;SDS011;2054;47.858;11.156;2022-09-09T17:22:46;1.00;;;0.60;;
4078;SDS011;2054;47.858;11.156;2022-09-09T17:25:15;1.25;;;0.70;;
4078;SDS011;2054;47.858;11.156;2022-09-09T17:27:42;1.30;;;0.80;;
4078;SDS011;2054;47.858;11.156;2022-09-09T17:30:12;0.93;;;0.70;;
4078;SDS011;2054;47.858;11.156;2022-09-09T17:32:40;1.65;;;0.70;;
4078;SDS011;2054;47.858;11.156;2022-09-09T17:35:07;2.45;;;0.73;;
4078;SDS011;2054;47.858;11.156;2022-09-09T17:37:34;0.70;;;0.70;;
4078;SDS011;2054;47.858;11.156;2022-09-09T17:40:02;0.88;;;0.80;;
4078;SDS011;2054;47.858;11.156;2022-09-09T17:42:29;2.60;;;0.80;;
4078;SDS011;2054;47.858;11.156;2022-09-09T17:44:57;0.60;;;0.60;;
4078;SDS011;2054;47.858;11.156;2022-09-09T17:47:26;0.68;;;0.60;;
4078;SDS011;2054;47.858;11.156;2022-09-09T17:49:55;2.78;;;0.90;;
4078;SDS011;2054;47.858;11.156;2022-09-09T17:52:23;2.33;;;0.80;;
4078;SDS011;2054;47.858;11.156;2022-09-09T17:54:51;0.80;;;0.80;;